sensor_id;sensor_type;location;lat;lon;timestamp;pressure;altitude;pressure_sealevel;temperature;humidity
30338;BME280;17143;51.888;5.408;2023-07-29T00:09:52;100528.97;;;19.84;100.00
30338;BME280;17143;51.888;5.408;2023-07-29T00:24:54;100545.59;;;19.72;100.00
30338;BME280;17143;51.888;5.408;2023-07-29T00:39:56;100529.59;;;19.63;100.00
30338;BME280;17143;51.888;5.408;2023-07-29T00:54:58;100494.34;;;19.61;100.00
30338;BME280;17143;51.888;5.408;2023-07-29T01:10:03;100520.75;;;19.58;100.00
30338;BME280;17143;51.888;5.408;2023-07-29T01:25:08;100518.94;;;19.56;100.00
30338;BME280;17143;51.888;5.408;2023-07-29T01:40:11;100518.06;;;19.55;100.00
30338;BME280;17143;51.888;5.408;2023-07-29T01:55:13;100504.69;;;19.43;100.00
30338;BME280;17143;51.888;5.408;2023-07-29T02:10:15;100501.91;;;19.35;100.00
30338;BME280;17143;51.888;5.408;2023-07-29T02:25:18;100499.16;;;19.28;100.00
30338;BME280;17143;51.888;5.408;2023-07-29T02:40:20;100484.91;;;19.17;100.00
30338;BME280;17143;51.888;5.408;2023-07-29T02:55:22;100487.28;;;18.99;100.00
30338;BME280;17143;51.888;5.408;2023-07-29T03:10:24;100465.00;;;18.78;100.00
30338;BME280;17143;51.888;5.408;2023-07-29T03:25:26;100465.66;;;18.62;100.00
30338;BME280;17143;51.888;5.408;2023-07-29T03:40:28;100469.84;;;18.51;100.00
30338;BME280;17143;51.888;5.408;2023-07-29T03:55:30;100480.25;;;18.42;100.00
30338;BME280;17143;51.888;5.408;2023-07-29T04:10:32;100472.94;;;18.26;100.00
30338;BME280;17143;51.888;5.408;2023-07-29T04:25:34;100456.97;;;18.18;100.00
30338;BME280;17143;51.888;5.408;2023-07-29T04:40:36;100490.31;;;18.15;100.00
30338;BME280;17143;51.888;5.408;2023-07-29T04:55:41;100495.59;;;18.15;100.00
30338;BME280;17143;51.888;5.408;2023-07-29T05:10:43;100505.66;;;18.37;100.00
30338;BME280;17143;51.888;5.408;2023-07-29T05:25:45;100522.41;;;18.39;100.00
30338;BME280;17143;51.888;5.408;2023-07-29T05:40:49;100512.19;;;18.57;100.00
30338;BME280;17143;51.888;5.408;2023-07-29T05:55:51;100514.81;;;19.13;100.00
30338;BME280;17143;51.888;5.408;2023-07-29T06:10:55;100512.88;;;20.44;100.00
30338;BME280;17143;51.888;5.408;2023-07-29T06:25:57;100523.63;;;22.22;100.00
30338;BME280;17143;51.888;5.408;2023-07-29T06:40:59;100519.19;;;22.07;96.57
30338;BME280;17143;51.888;5.408;2023-07-29T06:56:01;100526.38;;;22.66;95.28
30338;BME280;17143;51.888;5.408;2023-07-29T07:11:03;100547.41;;;21.90;97.39
30338;BME280;17143;51.888;5.408;2023-07-29T07:26:05;100551.84;;;21.91;99.08
30338;BME280;17143;51.888;5.408;2023-07-29T07:41:08;100529.56;;;23.96;92.00
30338;BME280;17143;51.888;5.408;2023-07-29T07:56:10;100562.59;;;23.47;89.91
30338;BME280;17143;51.888;5.408;2023-07-29T08:11:12;100556.47;;;22.86;93.45
30338;BME280;17143;51.888;5.408;2023-07-29T08:26:14;100565.31;;;22.94;91.30
30338;BME280;17143;51.888;5.408;2023-07-29T08:41:19;100577.59;;;22.19;93.50
30338;BME280;17143;51.888;5.408;2023-07-29T08:56:21;100570.56;;;22.45;94.35
30338;BME280;17143;51.888;5.408;2023-07-29T09:11:24;100573.84;;;24.23;87.42
30338;BME280;17143;51.888;5.408;2023-07-29T09:26:27;100570.41;;;23.92;84.17
30338;BME280;17143;51.888;5.408;2023-07-29T09:41:29;100559.47;;;24.51;81.46
30338;BME280;17143;51.888;5.408;2023-07-29T09:56:31;100556.31;;;25.92;79.02
30338;BME280;17143;51.888;5.408;2023-07-29T10:11:34;100561.53;;;26.01;74.77
30338;BME280;17143;51.888;5.408;2023-07-29T10:26:38;100555.31;;;25.25;77.83
30338;BME280;17143;51.888;5.408;2023-07-29T10:41:59;100555.88;;;24.55;79.18
30338;BME280;17143;51.888;5.408;2023-07-29T10:57:02;100571.19;;;24.25;83.21
30338;BME280;17143;51.888;5.408;2023-07-29T11:27:52;100600.66;;;22.54;100.00
30338;BME280;17143;51.888;5.408;2023-07-29T11:42:55;100581.97;;;22.04;100.00
30338;BME280;17143;51.888;5.408;2023-07-29T11:57:57;100585.50;;;22.04;100.00
30338;BME280;17143;51.888;5.408;2023-07-29T12:12:59;100570.63;;;22.70;100.00
30338;BME280;17143;51.888;5.408;2023-07-29T12:28:05;100567.81;;;23.82;100.00
30338;BME280;17143;51.888;5.408;2023-07-29T12:43:07;100587.09;;;24.35;100.00
30338;BME280;17143;51.888;5.408;2023-07-29T12:58:09;100590.66;;;24.31;100.00
30338;BME280;17143;51.888;5.408;2023-07-29T13:13:11;100559.25;;;24.83;98.26
30338;BME280;17143;51.888;5.408;2023-07-29T13:28:13;100571.00;;;25.55;92.02
30338;BME280;17143;51.888;5.408;2023-07-29T13:43:15;100571.34;;;26.01;87.23
30338;BME280;17143;51.888;5.408;2023-07-29T13:58:17;100570.13;;;26.28;84.47
30338;BME280;17143;51.888;5.408;2023-07-29T14:13:19;100566.09;;;25.93;80.90
30338;BME280;17143;51.888;5.408;2023-07-29T14:28:21;100565.06;;;26.03;76.27
30338;BME280;17143;51.888;5.408;2023-07-29T14:43:23;100561.13;;;26.32;76.15
30338;BME280;17143;51.888;5.408;2023-07-29T14:58:25;100572.63;;;25.68;73.41
30338;BME280;17143;51.888;5.408;2023-07-29T15:13:27;100555.38;;;25.16;75.36
30338;BME280;17143;51.888;5.408;2023-07-29T15:28:29;100550.91;;;25.18;82.02
30338;BME280;17143;51.888;5.408;2023-07-29T15:43:31;100555.50;;;25.87;79.47
30338;BME280;17143;51.888;5.408;2023-07-29T15:58:33;100561.34;;;25.40;78.40
30338;BME280;17143;51.888;5.408;2023-07-29T16:13:35;100555.28;;;25.28;81.53
30338;BME280;17143;51.888;5.408;2023-07-29T16:28:37;100546.53;;;25.14;81.99
30338;BME280;17143;51.888;5.408;2023-07-29T16:43:39;100533.16;;;25.15;80.97
30338;BME280;17143;51.888;5.408;2023-07-29T16:58:41;100539.47;;;25.10;81.74
30338;BME280;17143;51.888;5.408;2023-07-29T17:13:43;100526.41;;;24.76;83.54
30338;BME280;17143;51.888;5.408;2023-07-29T17:28:45;100525.78;;;24.41;87.19
30338;BME280;17143;51.888;5.408;2023-07-29T17:43:47;100539.22;;;24.25;89.70
30338;BME280;17143;51.888;5.408;2023-07-29T17:58:49;100534.00;;;24.02;92.52
30338;BME280;17143;51.888;5.408;2023-07-29T18:13:51;100557.81;;;24.31;93.46
30338;BME280;17143;51.888;5.408;2023-07-29T18:28:53;100565.22;;;23.54;82.75
30338;BME280;17143;51.888;5.408;2023-07-29T18:43:55;100593.66;;;22.89;79.64
30338;BME280;17143;51.888;5.408;2023-07-29T18:58:57;100603.28;;;22.31;78.43
30338;BME280;17143;51.888;5.408;2023-07-29T19:14:01;100620.75;;;21.83;75.07
30338;BME280;17143;51.888;5.408;2023-07-29T19:29:03;100632.00;;;21.45;74.64
30338;BME280;17143;51.888;5.408;2023-07-29T19:44:05;100637.03;;;21.08;73.91
30338;BME280;17143;51.888;5.408;2023-07-29T19:59:07;100663.22;;;20.81;75.97
30338;BME280;17143;51.888;5.408;2023-07-29T20:14:09;100670.88;;;20.52;78.27
30338;BME280;17143;51.888;5.408;2023-07-29T20:29:11;100667.94;;;20.28;80.02
30338;BME280;17143;51.888;5.408;2023-07-29T20:44:13;100671.13;;;20.04;81.89
30338;BME280;17143;51.888;5.408;2023-07-29T20:59:15;100673.53;;;19.86;83.41
30338;BME280;17143;51.888;5.408;2023-07-29T21:14:17;100666.31;;;19.73;84.59
30338;BME280;17143;51.888;5.408;2023-07-29T21:29:19;100663.44;;;19.58;86.60
30338;BME280;17143;51.888;5.408;2023-07-29T21:44:21;100658.53;;;19.28;88.54
30338;BME280;17143;51.888;5.408;2023-07-29T21:59:23;100656.47;;;19.09;90.40
30338;BME280;17143;51.888;5.408;2023-07-29T22:14:25;100663.88;;;18.80;92.22
30338;BME280;17143;51.888;5.408;2023-07-29T22:29:27;100668.91;;;18.65;93.18
30338;BME280;17143;51.888;5.408;2023-07-29T22:44:29;100678.94;;;18.41;94.34
30338;BME280;17143;51.888;5.408;2023-07-29T22:59:31;100697.88;;;18.22;95.23
30338;BME280;17143;51.888;5.408;2023-07-29T23:14:33;100711.56;;;18.03;97.06
30338;BME280;17143;51.888;5.408;2023-07-29T23:29:35;100712.09;;;17.90;97.68
30338;BME280;17143;51.888;5.408;2023-07-29T23:44:37;100724.94;;;17.75;97.75
30338;BME280;17143;51.888;5.408;2023-07-29T23:59:39;100718.22;;;17.51;98.76
